Home PIREPS Pireps

Flight BEL2368

  • Submitted By: Lorenzo Stobbione
  • Departure Airport: Riga West (EVRA)
  • Arrival Airport: Bruxelles National (EBBR)
  • Aircraft: BAE AVRO RJ1 (OO-DWB)
  • Flight Time: 02.45
  • Date Submitted: 09/02/2018
  • Status: Accepted
Flight Details
Gross Revenue:
(83 load / € 194.00 per unit
€ 16,102.00
Fuel Cost:
(9608 fuel used @ 5.1 / unit)
€ 49,000.80

Additional Log Information:

View Log

Aircraft Used in flight is Boeing757v121Extended 200-Brussels Airlines RR
21:36 Brakes are On
21:41 Brakes are Released
21:49 Brakes are On
21:49 Brakes are Released
21:49 Brakes are On
21:49 Brakes are Released
21:50 Brakes are On
21:50 Brakes are Released
21:50 Brakes are On
21:50 Brakes are Released
21:51 Brakes are On
21:51 Brakes are Released
21:52 You Took off @ 151 Knots and Flaps at Position 2
Departure Weather
EVRA 092050Z 08004KT 7000 SCT006 M10/M10 Q1022 R36/310195 NOSIGrn
21:52 Landing Gear Up @ 151 Knots and 300 Feet
21:53 You exceeded maximum bank angle
21:55 Below 10000 feet you are not allowed to go over 250 knots
21:56 Above FL100 you need to switch of the landing lights
00:06 You are Airborne and your Beacons are off
00:12 Landing Gear Down @ 154 Knots and 1800 Feet
00:14 You Landed @ 140 Knots and with -200 Vertical Speed
Arrival Weather
EBBR 092250Z 23010KT 5000 BR BKN006 BKN039 01/M00 Q1013 TEMPO 3500rn
00:14 Brakes are On
00:14 Brakes are Released
00:15 Brakes are On
00:15 Brakes are Released
00:15 Brakes are On
00:15 Brakes are Released
00:15 Brakes are On
00:15 Brakes are Released
00:16 Brakes are On
00:16 Brakes are Released
00:19 Brakes are On
00:19 Brakes are Released
00:21 Brakes are On
00:21 Brakes are Released
00:21 Brakes are On
00:22 Brussels Bel-Track1.0.1.2

Comments

Commenter Comment
Lorenzo Stobbione Sim offset -4h30m

Route Map

Corporate About Us Our Team Vacancies Information Fleet Route Network Rules and Regulations Operations Flight Schedules Event Center Tours Partners IVAO Vatsim Acars dev FSCB

fb Users Online No pilots online!
0 Pilot(s) and 142 Guest(s) Online
CMS by phpVMS - Design by Crazycreatives.com - Copyright © 2018 - Brussels Airlines Virtual